Time;durP1;ratioP1;P1;durP2;ratioP2;P2;SDS_P1;SDS_P2;PMS_P1;PMS_P2;Temp;Humidity;BMP_temperature;BMP_pressure;BME280_temperature;BME280_humidity;BME280_pressure;Samples;Min_cycle;Max_cycle;Signal;HPM_P1;HPM_P2
2023/04/10 00:02:20;;;;;;;9.97;7.30;;;;;;;;;;5048829;28;20213;-79
2023/04/10 00:04:46;;;;;;;7.93;6.53;;;;;;;;;;5048988;28;20304;-79
2023/04/10 00:07:13;;;;;;;8.33;7.20;;;;;;;;;;5046877;28;20183;-79
2023/04/10 00:09:39;;;;;;;13.47;8.37;;;;;;;;;;5049256;28;20771;-79
2023/04/10 00:12:05;;;;;;;9.03;6.80;;;;;;;;;;5045600;28;20202;-79
2023/04/10 00:14:31;;;;;;;7.47;5.93;;;;;;;;;;5048096;28;20393;-79
2023/04/10 00:16:57;;;;;;;11.20;8.07;;;;;;;;;;5048312;28;20182;-79
2023/04/10 00:19:24;;;;;;;10.10;7.73;;;;;;;;;;5048304;28;20182;-79
2023/04/10 00:21:50;;;;;;;9.20;7.07;;;;;;;;;;5048248;28;20567;-79
2023/04/10 00:24:16;;;;;;;9.13;8.03;;;;;;;;;;5048886;28;20424;-79
2023/04/10 00:26:42;;;;;;;8.37;7.23;;;;;;;;;;5047123;28;20221;-79
2023/04/10 00:29:08;;;;;;;9.97;8.20;;;;;;;;;;5048073;28;20191;-79
2023/04/10 00:31:34;;;;;;;10.73;7.40;;;;;;;;;;5045603;28;20218;-79
2023/04/10 00:34:00;;;;;;;9.87;7.20;;;;;;;;;;5043125;28;20178;-78
2023/04/10 00:36:27;;;;;;;10.47;8.10;;;;;;;;;;5053156;28;20998;-79
2023/04/10 00:38:53;;;;;;;11.77;8.33;;;;;;;;;;5045048;28;20174;-79
2023/04/10 00:41:19;;;;;;;9.37;7.73;;;;;;;;;;5048127;28;20532;-79
2023/04/10 00:43:45;;;;;;;10.47;7.27;;;;;;;;;;5047454;28;20197;-79
2023/04/10 00:46:12;;;;;;;10.13;8.10;;;;;;;;;;5047384;28;21195;-78
2023/04/10 00:48:38;;;;;;;9.97;7.87;;;;;;;;;;5047790;28;20186;-80
2023/04/10 00:51:06;;;;;;;9.27;7.90;;;;;;;;;;5049034;28;20654;-80
2023/04/10 00:53:32;;;;;;;9.47;7.77;;;;;;;;;;5042157;28;20562;-79
2023/04/10 00:55:59;;;;;;;10.23;9.05;;;;;;;;;;5047820;28;20451;-79
2023/04/10 00:58:26;;;;;;;10.07;8.70;;;;;;;;;;5049182;28;20538;-79
2023/04/10 01:00:52;;;;;;;8.60;7.30;;;;;;;;;;5048183;28;20609;-79
2023/04/10 01:03:19;;;;;;;10.23;7.30;;;;;;;;;;5029882;28;20214;-79
2023/04/10 01:05:53;;;;;;;10.13;7.43;;;;;;;;;;5048053;28;20228;-79
2023/04/10 01:08:27;;;;;;;10.03;7.83;;;;;;;;;;5046905;28;20177;-79
2023/04/10 01:11:06;;;;;;;11.40;9.07;;;;;;;;;;5044630;28;20235;-78
2023/04/10 01:13:35;;;;;;;11.17;9.37;;;;;;;;;;5041415;28;20211;-78
2023/04/10 01:16:02;;;;;;;9.20;8.00;;;;;;;;;;5045682;28;20185;-78
2023/04/10 01:18:50;;;;;;;10.33;7.73;;;;;;;;;;5039118;28;20186;-78
2023/04/10 01:21:17;;;;;;;9.60;7.53;;;;;;;;;;5028357;28;20591;-78
2023/04/10 01:24:07;;;;;;;8.00;6.73;;;;;;;;;;5047704;28;20255;-78
2023/04/10 01:26:50;;;;;;;8.77;6.83;;;;;;;;;;5046442;28;20210;-78
2023/04/10 01:29:21;;;;;;;10.00;7.50;;;;;;;;;;5046013;28;20241;-78
2023/04/10 01:31:52;;;;;;;8.53;6.20;;;;;;;;;;5047638;28;20572;-79
2023/04/10 01:34:21;;;;;;;9.77;7.20;;;;;;;;;;5046961;28;20185;-79
2023/04/10 01:36:49;;;;;;;8.60;7.40;;;;;;;;;;5055354;28;20190;-78
2023/04/10 01:39:18;;;;;;;8.23;6.93;;;;;;;;;;5045871;28;20239;-79
2023/04/10 01:41:46;;;;;;;8.33;6.33;;;;;;;;;;5048048;28;20212;-79
2023/04/10 01:44:14;;;;;;;7.80;6.33;;;;;;;;;;5057851;28;20217;-79
2023/04/10 01:46:41;;;;;;;8.00;6.03;;;;;;;;;;5046841;28;20339;-78
2023/04/10 01:49:08;;;;;;;9.77;7.43;;;;;;;;;;5042159;28;20545;-78
2023/04/10 01:51:35;;;;;;;8.07;6.50;;;;;;;;;;5046044;28;20189;-78
2023/04/10 01:54:05;;;;;;;8.07;6.67;;;;;;;;;;5044743;28;20212;-78
2023/04/10 01:56:32;;;;;;;7.90;6.33;;;;;;;;;;5044778;28;20296;-78
2023/04/10 01:58:58;;;;;;;8.33;7.10;;;;;;;;;;5041531;28;20182;-79
2023/04/10 02:01:25;;;;;;;10.23;8.17;;;;;;;;;;5045169;28;20190;-78
2023/04/10 02:03:52;;;;;;;9.80;8.37;;;;;;;;;;5046098;28;20289;-78
2023/04/10 02:06:25;;;;;;;9.57;8.17;;;;;;;;;;5047208;28;20229;-78
2023/04/10 02:09:15;;;;;;;10.00;7.63;;;;;;;;;;5044279;28;20217;-78
2023/04/10 02:11:44;;;;;;;11.07;8.50;;;;;;;;;;5046675;28;20190;-78
2023/04/10 02:14:11;;;;;;;9.50;7.63;;;;;;;;;;5055879;28;20188;-78
2023/04/10 02:16:38;;;;;;;10.67;8.17;;;;;;;;;;5055839;28;20265;-78
2023/04/10 02:19:05;;;;;;;11.20;8.60;;;;;;;;;;5045500;28;20185;-78
2023/04/10 02:21:33;;;;;;;10.83;8.47;;;;;;;;;;5046036;28;20273;-79
2023/04/10 02:23:59;;;;;;;10.00;8.30;;;;;;;;;;5026338;28;20192;-78
2023/04/10 02:26:26;;;;;;;8.70;7.80;;;;;;;;;;5029117;28;20236;-78
2023/04/10 02:28:52;;;;;;;8.70;7.47;;;;;;;;;;5047712;28;20192;-78
2023/04/10 02:31:18;;;;;;;9.77;7.70;;;;;;;;;;5047164;28;20197;-78
2023/04/10 02:33:44;;;;;;;9.77;6.80;;;;;;;;;;5046173;28;20197;-78
2023/04/10 02:36:11;;;;;;;7.37;6.10;;;;;;;;;;5046800;28;20579;-78
2023/04/10 02:38:37;;;;;;;7.67;6.43;;;;;;;;;;5045509;28;20211;-78
2023/04/10 02:41:04;;;;;;;9.20;7.53;;;;;;;;;;5042577;28;20303;-78
2023/04/10 02:43:30;;;;;;;8.90;7.70;;;;;;;;;;5045682;28;20206;-78
2023/04/10 02:45:57;;;;;;;9.57;7.77;;;;;;;;;;5045725;28;20209;-78
2023/04/10 02:48:26;;;;;;;10.33;8.93;;;;;;;;;;5045241;28;20189;-78
2023/04/10 02:50:57;;;;;;;10.20;8.43;;;;;;;;;;5046030;28;20170;-78
2023/04/10 02:53:24;;;;;;;12.47;10.07;;;;;;;;;;5062582;28;20270;-78
2023/04/10 02:55:54;;;;;;;11.60;9.37;;;;;;;;;;5062938;28;20189;-78
2023/04/10 02:58:21;;;;;;;11.53;8.80;;;;;;;;;;5059511;28;20190;-78
2023/04/10 03:00:49;;;;;;;10.77;8.97;;;;;;;;;;5052786;28;20193;-77
2023/04/10 03:03:35;;;;;;;11.80;9.40;;;;;;;;;;5046954;28;20276;-78
2023/04/10 03:06:02;;;;;;;13.17;9.53;;;;;;;;;;5046250;28;20224;-78
2023/04/10 03:08:31;;;;;;;10.77;8.80;;;;;;;;;;5045317;28;20188;-78
2023/04/10 03:10:57;;;;;;;10.70;8.07;;;;;;;;;;5046383;28;20533;-78
2023/04/10 03:13:23;;;;;;;10.43;8.60;;;;;;;;;;5046953;28;20957;-78
2023/04/10 03:15:49;;;;;;;10.40;8.63;;;;;;;;;;5046942;28;20182;-79
2023/04/10 03:18:16;;;;;;;9.37;7.93;;;;;;;;;;5043160;28;20186;-78
2023/04/10 03:20:44;;;;;;;12.00;9.50;;;;;;;;;;5046515;28;20193;-78
2023/04/10 03:23:10;;;;;;;11.47;8.70;;;;;;;;;;5045934;28;20626;-78
2023/04/10 03:25:36;;;;;;;11.53;8.67;;;;;;;;;;5045589;28;20834;-77
2023/04/10 03:28:04;;;;;;;12.37;9.50;;;;;;;;;;5044875;28;20753;-78
2023/04/10 03:30:31;;;;;;;10.90;9.13;;;;;;;;;;5031098;28;20247;-78
2023/04/10 03:32:57;;;;;;;12.10;8.53;;;;;;;;;;5030979;28;20209;-78
2023/04/10 03:35:23;;;;;;;10.67;8.10;;;;;;;;;;5048710;28;20177;-78
2023/04/10 03:37:49;;;;;;;9.43;7.73;;;;;;;;;;5051398;28;20186;-78
2023/04/10 03:40:15;;;;;;;7.47;6.30;;;;;;;;;;5041141;28;20213;-78
2023/04/10 03:42:42;;;;;;;11.90;7.60;;;;;;;;;;5031229;28;20198;-78
2023/04/10 03:45:08;;;;;;;9.47;7.50;;;;;;;;;;5046837;28;20202;-78
2023/04/10 03:47:34;;;;;;;8.00;6.47;;;;;;;;;;5049219;28;20590;-78
2023/04/10 03:50:03;;;;;;;8.53;6.63;;;;;;;;;;5048930;28;20181;-78
2023/04/10 03:52:36;;;;;;;9.87;7.10;;;;;;;;;;5016955;28;20255;-78
2023/04/10 03:55:04;;;;;;;7.90;6.27;;;;;;;;;;5055568;28;20530;-78
2023/04/10 03:57:31;;;;;;;7.87;6.20;;;;;;;;;;5049898;28;20204;-78
2023/04/10 04:00:03;;;;;;;7.43;6.20;;;;;;;;;;5049493;28;20545;-78
2023/04/10 04:02:46;;;;;;;7.67;6.27;;;;;;;;;;5042827;28;20212;-78
2023/04/10 04:05:17;;;;;;;8.17;6.30;;;;;;;;;;5048717;28;20210;-78
2023/04/10 04:07:48;;;;;;;9.27;7.00;;;;;;;;;;5047048;28;20239;-78
2023/04/10 04:10:29;;;;;;;8.40;6.30;;;;;;;;;;5049262;28;20681;-79
2023/04/10 04:13:13;;;;;;;8.13;6.90;;;;;;;;;;5032890;28;20237;-78
2023/04/10 04:15:53;;;;;;;11.17;7.67;;;;;;;;;;5047625;28;20220;-78
2023/04/10 04:18:44;;;;;;;9.20;6.30;;;;;;;;;;5042921;28;20181;-78
2023/04/10 04:21:24;;;;;;;7.80;6.13;;;;;;;;;;5047234;28;20253;-79
2023/04/10 04:24:11;;;;;;;7.60;6.17;;;;;;;;;;5026948;28;20186;-78
2023/04/10 04:26:55;;;;;;;8.07;6.40;;;;;;;;;;5049116;28;20236;-78
2023/04/10 04:29:40;;;;;;;8.43;6.43;;;;;;;;;;5041425;28;20182;-78
2023/04/10 04:32:17;;;;;;;13.17;7.93;;;;;;;;;;5047678;28;20259;-78
2023/04/10 04:35:01;;;;;;;10.43;7.10;;;;;;;;;;5049906;28;20174;-78
2023/04/10 04:37:41;;;;;;;11.97;7.27;;;;;;;;;;5049252;28;20186;-76
2023/04/10 04:40:25;;;;;;;12.57;7.70;;;;;;;;;;5043861;28;20174;-78
2023/04/10 04:43:10;;;;;;;8.90;6.27;;;;;;;;;;5041657;28;20209;-78
2023/04/10 04:45:55;;;;;;;9.00;6.37;;;;;;;;;;5048914;28;20845;-77
2023/04/10 04:48:39;;;;;;;7.60;6.07;;;;;;;;;;5047649;28;20237;-78
2023/04/10 04:51:27;;;;;;;7.10;6.27;;;;;;;;;;5048665;28;20574;-78
2023/04/10 04:54:14;;;;;;;7.77;6.67;;;;;;;;;;5047097;28;20193;-77
2023/04/10 04:56:40;;;;;;;7.30;5.97;;;;;;;;;;5047993;28;20193;-78
2023/04/10 04:59:27;;;;;;;6.83;5.93;;;;;;;;;;5043471;28;20181;-78
2023/04/10 05:02:04;;;;;;;7.03;6.30;;;;;;;;;;5030922;28;20206;-78
2023/04/10 05:04:42;;;;;;;7.13;5.43;;;;;;;;;;5049638;28;20182;-78
2023/04/10 05:07:44;;;;;;;8.63;6.00;;;;;;;;;;5037633;28;20216;-78
2023/04/10 05:10:31;;;;;;;7.00;5.67;;;;;;;;;;5046103;28;20284;-78
2023/04/10 05:13:16;;;;;;;7.17;6.10;;;;;;;;;;5049016;28;20281;-78
2023/04/10 05:16:05;;;;;;;7.50;6.30;;;;;;;;;;5037536;28;20198;-78
2023/04/10 05:18:54;;;;;;;7.90;6.47;;;;;;;;;;5046152;28;20217;-78
2023/04/10 05:21:41;;;;;;;7.27;6.17;;;;;;;;;;5047579;28;20176;-78
2023/04/10 05:24:22;;;;;;;7.07;6.20;;;;;;;;;;5046246;28;20299;-78
2023/04/10 05:27:09;;;;;;;8.33;6.07;;;;;;;;;;5048940;28;20724;-78
2023/04/10 05:30:01;;;;;;;6.80;5.87;;;;;;;;;;5045027;28;20838;-78
2023/04/10 05:32:42;;;;;;;7.43;6.47;;;;;;;;;;5046485;28;20273;-78
2023/04/10 05:35:21;;;;;;;7.03;5.77;;;;;;;;;;5047259;28;20478;-77
2023/04/10 05:38:01;;;;;;;8.37;6.47;;;;;;;;;;5047131;28;20186;-78
2023/04/10 05:40:33;;;;;;;6.70;6.00;;;;;;;;;;5048832;28;20192;-78
2023/04/10 05:43:18;;;;;;;6.47;5.40;;;;;;;;;;5047677;28;20193;-78
2023/04/10 05:46:11;;;;;;;6.83;6.13;;;;;;;;;;5046330;28;20201;-78
2023/04/10 05:48:48;;;;;;;7.07;5.93;;;;;;;;;;5042502;28;20269;-78
2023/04/10 05:51:22;;;;;;;6.67;5.73;;;;;;;;;;5046801;28;20166;-78
2023/04/10 05:54:11;;;;;;;5.50;4.80;;;;;;;;;;5037259;28;20194;-79
2023/04/10 05:56:47;;;;;;;5.93;5.30;;;;;;;;;;5048191;28;20527;-78
2023/04/10 05:59:19;;;;;;;6.53;5.47;;;;;;;;;;5048818;28;20227;-78
2023/04/10 06:01:59;;;;;;;6.50;5.80;;;;;;;;;;5039860;28;20198;-79
2023/04/10 06:04:26;;;;;;;6.87;5.87;;;;;;;;;;5046104;28;20201;-78
2023/04/10 06:06:54;;;;;;;6.87;5.70;;;;;;;;;;5046789;28;20209;-78
2023/04/10 06:09:20;;;;;;;6.10;5.43;;;;;;;;;;5030786;28;20211;-79
2023/04/10 06:11:47;;;;;;;6.47;5.77;;;;;;;;;;5030483;28;20169;-76
2023/04/10 06:14:17;;;;;;;6.40;5.67;;;;;;;;;;5046008;28;20598;-77
2023/04/10 06:16:44;;;;;;;6.37;5.30;;;;;;;;;;5045753;28;20307;-82
2023/04/10 06:19:11;;;;;;;6.40;5.70;;;;;;;;;;5046015;28;20695;-78
2023/04/10 06:21:37;;;;;;;7.30;5.63;;;;;;;;;;5045928;28;20268;-78
2023/04/10 06:24:03;;;;;;;6.77;5.80;;;;;;;;;;5047969;28;20190;-79
2023/04/10 06:26:29;;;;;;;7.03;6.07;;;;;;;;;;5040957;28;20202;-77
2023/04/10 06:28:55;;;;;;;7.20;6.50;;;;;;;;;;5042773;28;20764;-76
2023/04/10 06:31:22;;;;;;;6.90;6.07;;;;;;;;;;5047065;28;20243;-76
2023/04/10 06:33:49;;;;;;;7.57;6.60;;;;;;;;;;5046392;28;20194;-75
2023/04/10 06:36:15;;;;;;;7.33;6.53;;;;;;;;;;5030612;28;20250;-76
2023/04/10 06:38:47;;;;;;;6.77;6.07;;;;;;;;;;5047183;28;20579;-76
2023/04/10 06:41:13;;;;;;;6.87;6.17;;;;;;;;;;5045701;28;20277;-76
2023/04/10 06:43:39;;;;;;;8.53;7.20;;;;;;;;;;5045934;28;20214;-76
2023/04/10 06:46:05;;;;;;;7.20;6.40;;;;;;;;;;5046909;28;20206;-76
2023/04/10 06:48:32;;;;;;;7.97;6.20;;;;;;;;;;5047889;28;20178;-76
2023/04/10 06:51:02;;;;;;;7.03;6.20;;;;;;;;;;5039082;28;20182;-75
2023/04/10 06:53:28;;;;;;;8.43;6.53;;;;;;;;;;5034755;28;20222;-76
2023/04/10 06:55:55;;;;;;;8.30;7.40;;;;;;;;;;5040582;28;20186;-77
2023/04/10 06:58:23;;;;;;;9.10;6.90;;;;;;;;;;5040508;28;20265;-75
2023/04/10 07:00:49;;;;;;;7.07;6.37;;;;;;;;;;5040696;28;20220;-76
2023/04/10 07:03:15;;;;;;;7.77;6.67;;;;;;;;;;5046124;28;20225;-76
2023/04/10 07:05:41;;;;;;;8.13;7.00;;;;;;;;;;5046840;28;20190;-75
2023/04/10 07:08:07;;;;;;;7.43;6.67;;;;;;;;;;5045894;28;20593;-78
2023/04/10 07:10:34;;;;;;;8.57;6.97;;;;;;;;;;5039897;28;20189;-77
2023/04/10 07:13:00;;;;;;;7.40;6.50;;;;;;;;;;5043352;28;20198;-77
2023/04/10 07:15:27;;;;;;;9.97;8.80;;;;;;;;;;5043608;28;20646;-77
2023/04/10 07:17:55;;;;;;;8.63;7.73;;;;;;;;;;5043386;28;20190;-76
2023/04/10 07:20:21;;;;;;;9.13;8.07;;;;;;;;;;5043600;28;20235;-77
2023/04/10 07:22:47;;;;;;;7.33;6.63;;;;;;;;;;5046527;28;20255;-75
2023/04/10 07:25:14;;;;;;;9.20;8.10;;;;;;;;;;5045403;28;20205;-76
2023/04/10 07:27:40;;;;;;;10.30;9.00;;;;;;;;;;5046227;28;20197;-76
2023/04/10 07:30:07;;;;;;;8.20;6.93;;;;;;;;;;5043576;28;20186;-77
2023/04/10 07:32:33;;;;;;;9.27;7.90;;;;;;;;;;5045320;28;20210;-75
2023/04/10 07:35:00;;;;;;;8.23;7.03;;;;;;;;;;5046413;28;20211;-76
2023/04/10 07:37:26;;;;;;;8.33;7.30;;;;;;;;;;5046494;28;20265;-77
2023/04/10 07:39:52;;;;;;;10.03;8.33;;;;;;;;;;5043053;28;20201;-77
2023/04/10 07:42:19;;;;;;;8.53;7.20;;;;;;;;;;5044013;28;20198;-77
2023/04/10 07:44:45;;;;;;;6.63;5.83;;;;;;;;;;5041548;28;20228;-76
2023/04/10 07:47:11;;;;;;;9.80;8.17;;;;;;;;;;5038595;28;20569;-78
2023/04/10 07:49:37;;;;;;;9.63;7.23;;;;;;;;;;5040444;28;20558;-76
2023/04/10 07:52:03;;;;;;;7.07;5.97;;;;;;;;;;5039170;28;20205;-77
2023/04/10 07:54:33;;;;;;;6.70;6.00;;;;;;;;;;5043836;28;20597;-76
2023/04/10 07:56:59;;;;;;;9.40;6.33;;;;;;;;;;5044258;28;20201;-79
2023/04/10 07:59:27;;;;;;;6.67;5.80;;;;;;;;;;5045274;28;20193;-77
2023/04/10 08:01:54;;;;;;;7.97;6.90;;;;;;;;;;5040115;28;20220;-78
2023/04/10 08:04:20;;;;;;;6.07;5.40;;;;;;;;;;5024723;28;20182;-77
2023/04/10 08:06:46;;;;;;;6.20;5.60;;;;;;;;;;5046561;28;20194;-77
2023/04/10 08:09:12;;;;;;;6.37;5.30;;;;;;;;;;5036352;28;20175;-78
2023/04/10 08:11:38;;;;;;;8.63;6.83;;;;;;;;;;5046547;28;20182;-78
2023/04/10 08:14:05;;;;;;;5.87;5.27;;;;;;;;;;5044472;28;20182;-79
2023/04/10 08:16:33;;;;;;;11.13;8.07;;;;;;;;;;5044285;28;20749;-78
2023/04/10 08:19:00;;;;;;;6.83;5.30;;;;;;;;;;5048248;28;20186;-75
2023/04/10 08:21:27;;;;;;;5.77;4.97;;;;;;;;;;5048434;28;20255;-77
2023/04/10 08:23:53;;;;;;;5.50;4.53;;;;;;;;;;5037229;28;20205;-76
2023/04/10 08:26:20;;;;;;;6.13;5.27;;;;;;;;;;5065102;28;20293;-78
2023/04/10 08:28:48;;;;;;;5.40;4.90;;;;;;;;;;5050008;28;20756;-76
2023/04/10 08:31:14;;;;;;;5.83;5.00;;;;;;;;;;5049319;28;20353;-76
2023/04/10 08:33:40;;;;;;;6.63;5.83;;;;;;;;;;5039753;28;20230;-76
2023/04/10 08:36:07;;;;;;;5.37;4.70;;;;;;;;;;5043585;28;20967;-75
2023/04/10 08:38:34;;;;;;;5.23;4.73;;;;;;;;;;5045926;28;20225;-76
2023/04/10 08:41:00;;;;;;;4.70;4.13;;;;;;;;;;5049062;28;20190;-75
2023/04/10 08:43:26;;;;;;;5.10;4.43;;;;;;;;;;5045212;28;20202;-76
2023/04/10 08:45:52;;;;;;;6.70;5.40;;;;;;;;;;5047683;28;20293;-75
2023/04/10 08:48:22;;;;;;;6.57;4.90;;;;;;;;;;5049571;28;20304;-76
2023/04/10 08:50:49;;;;;;;6.90;4.97;;;;;;;;;;5043193;28;20174;-77
2023/04/10 08:53:15;;;;;;;4.80;4.40;;;;;;;;;;5045935;28;20648;-78
2023/04/10 08:55:43;;;;;;;6.07;4.47;;;;;;;;;;5039254;28;20232;-76
2023/04/10 08:58:12;;;;;;;7.33;5.10;;;;;;;;;;5050371;28;20189;-76
2023/04/10 09:00:38;;;;;;;5.30;4.50;;;;;;;;;;5046514;28;20698;-80
2023/04/10 09:03:10;;;;;;;4.33;3.93;;;;;;;;;;5047051;28;20219;-75
2023/04/10 09:05:36;;;;;;;4.30;3.90;;;;;;;;;;5048948;28;20253;-76
2023/04/10 09:08:03;;;;;;;4.50;4.00;;;;;;;;;;5045747;28;20185;-76
2023/04/10 09:10:30;;;;;;;4.07;3.67;;;;;;;;;;5043329;28;20189;-76
2023/04/10 09:12:56;;;;;;;4.63;3.70;;;;;;;;;;5049242;28;20206;-76
2023/04/10 09:15:22;;;;;;;4.40;3.73;;;;;;;;;;5048648;28;20730;-75
2023/04/10 09:17:59;;;;;;;3.70;3.40;;;;;;;;;;5047207;28;20184;-75
2023/04/10 09:20:26;;;;;;;6.30;4.60;;;;;;;;;;5049835;28;20201;-75
2023/04/10 09:22:52;;;;;;;6.87;4.67;;;;;;;;;;5039266;28;20237;-75
2023/04/10 09:25:32;;;;;;;4.53;3.90;;;;;;;;;;5046453;28;20217;-74
2023/04/10 09:28:01;;;;;;;4.43;4.00;;;;;;;;;;5049570;28;20173;-75
2023/04/10 09:30:38;;;;;;;7.20;5.07;;;;;;;;;;5044004;28;20182;-75
2023/04/10 09:33:20;;;;;;;6.90;4.90;;;;;;;;;;5041223;28;20209;-77
2023/04/10 09:35:46;;;;;;;7.73;3.93;;;;;;;;;;5048161;28;20216;-75
2023/04/10 09:38:14;;;;;;;4.43;3.47;;;;;;;;;;5050830;28;20177;-77
2023/04/10 09:40:40;;;;;;;3.90;3.50;;;;;;;;;;5050684;28;20178;-75
2023/04/10 09:43:19;;;;;;;3.77;3.47;;;;;;;;;;5049336;28;20845;-76
2023/04/10 09:45:49;;;;;;;4.87;4.30;;;;;;;;;;5038632;28;20214;-77
2023/04/10 09:48:15;;;;;;;4.90;3.50;;;;;;;;;;5048499;28;20756;-75
2023/04/10 09:50:42;;;;;;;3.60;3.30;;;;;;;;;;5050869;28;20174;-75
2023/04/10 09:53:18;;;;;;;3.20;2.90;;;;;;;;;;5049073;28;20241;-79
2023/04/10 09:55:45;;;;;;;3.80;3.50;;;;;;;;;;5048418;28;20224;-75
2023/04/10 09:58:11;;;;;;;4.60;4.10;;;;;;;;;;5045606;28;20631;-77
2023/04/10 10:00:47;;;;;;;3.63;3.33;;;;;;;;;;5046615;28;20227;-76
2023/04/10 10:03:15;;;;;;;3.80;3.50;;;;;;;;;;5048380;28;20270;-77
2023/04/10 10:05:42;;;;;;;3.80;3.40;;;;;;;;;;5041940;28;20280;-76
2023/04/10 10:08:13;;;;;;;4.07;3.60;;;;;;;;;;5045604;28;20184;-76
2023/04/10 10:10:45;;;;;;;3.23;2.93;;;;;;;;;;5045432;28;20186;-75
2023/04/10 10:13:16;;;;;;;3.80;3.40;;;;;;;;;;5026032;28;20736;-79
2023/04/10 10:15:46;;;;;;;3.77;3.37;;;;;;;;;;5042288;28;20578;-75
2023/04/10 10:18:18;;;;;;;3.63;3.33;;;;;;;;;;5038627;28;20637;-77
2023/04/10 10:20:46;;;;;;;4.40;4.00;;;;;;;;;;5044338;28;20240;-77
2023/04/10 10:23:13;;;;;;;3.53;3.23;;;;;;;;;;5044805;28;21008;-76
2023/04/10 10:25:39;;;;;;;3.60;3.30;;;;;;;;;;5041998;28;20580;-76
2023/04/10 10:28:05;;;;;;;3.60;3.30;;;;;;;;;;5046590;28;20186;-76
2023/04/10 10:30:34;;;;;;;3.33;3.03;;;;;;;;;;5044429;28;20190;-77
2023/04/10 10:33:01;;;;;;;3.53;3.20;;;;;;;;;;5046216;28;20269;-76
2023/04/10 10:35:30;;;;;;;3.83;3.53;;;;;;;;;;5046326;28;20224;-76
2023/04/10 10:37:58;;;;;;;3.53;3.23;;;;;;;;;;5045353;28;20181;-78
2023/04/10 10:40:29;;;;;;;3.77;3.47;;;;;;;;;;5045326;28;20181;-78
2023/04/10 10:43:07;;;;;;;3.53;3.23;;;;;;;;;;5041304;28;20683;-81
2023/04/10 10:45:47;;;;;;;3.70;3.40;;;;;;;;;;5027461;28;20284;-81
2023/04/10 10:48:14;;;;;;;4.30;3.20;;;;;;;;;;5046348;28;20196;-82
2023/04/10 10:50:52;;;;;;;3.60;3.30;;;;;;;;;;5044432;28;20421;-81
2023/04/10 10:53:39;;;;;;;4.20;3.80;;;;;;;;;;5031429;28;20716;-82
2023/04/10 10:56:21;;;;;;;3.63;3.33;;;;;;;;;;5042789;28;20684;-82
2023/04/10 10:58:49;;;;;;;4.07;3.67;;;;;;;;;;5028498;28;20535;-83
2023/04/10 11:01:15;;;;;;;3.63;3.33;;;;;;;;;;5041911;28;20179;-82
2023/04/10 11:03:43;;;;;;;3.27;2.97;;;;;;;;;;5046336;28;20209;-82
2023/04/10 11:06:15;;;;;;;3.67;3.37;;;;;;;;;;5041533;28;20210;-82
2023/04/10 11:08:51;;;;;;;4.17;3.77;;;;;;;;;;5027555;28;20524;-82
2023/04/10 11:11:27;;;;;;;3.93;3.53;;;;;;;;;;5040565;28;20276;-83
2023/04/10 11:13:56;;;;;;;4.00;3.60;;;;;;;;;;5041907;28;20288;-81
2023/04/10 11:16:43;;;;;;;3.50;3.20;;;;;;;;;;5042999;28;20193;-83
2023/04/10 11:19:12;;;;;;;3.57;3.27;;;;;;;;;;5057028;28;20190;-82
2023/04/10 11:21:58;;;;;;;4.00;3.60;;;;;;;;;;5028236;28;20185;-82
2023/04/10 11:24:24;;;;;;;3.67;3.33;;;;;;;;;;5031212;28;20670;-82
2023/04/10 11:26:50;;;;;;;3.83;3.53;;;;;;;;;;5042251;28;20224;-81
2023/04/10 11:29:16;;;;;;;3.80;3.50;;;;;;;;;;5044149;28;20185;-88
2023/04/10 11:31:58;;;;;;;3.93;3.50;;;;;;;;;;5025633;28;20197;-84
2023/04/10 11:34:29;;;;;;;4.13;3.43;;;;;;;;;;5060714;28;20166;-84
2023/04/10 11:36:55;;;;;;;3.90;3.60;;;;;;;;;;5043678;28;20257;-84
2023/04/10 11:39:22;;;;;;;4.07;3.70;;;;;;;;;;5042924;28;20190;-83
2023/04/10 11:41:49;;;;;;;3.60;3.30;;;;;;;;;;5045678;28;20221;-81
2023/04/10 11:44:16;;;;;;;4.53;3.80;;;;;;;;;;5041970;28;20642;-81
2023/04/10 11:46:46;;;;;;;4.00;3.70;;;;;;;;;;5045867;28;20237;-81
2023/04/10 11:49:13;;;;;;;4.10;3.70;;;;;;;;;;5038238;28;20197;-80
2023/04/10 11:51:39;;;;;;;4.03;3.63;;;;;;;;;;5035929;28;20722;-79
2023/04/10 11:54:16;;;;;;;3.93;3.53;;;;;;;;;;5044322;28;20182;-83
2023/04/10 11:56:43;;;;;;;3.65;3.35;;;;;;;;;;5042186;28;20423;-83
2023/04/10 11:59:12;;;;;;;3.30;3.00;;;;;;;;;;5030309;28;20272;-81
2023/04/10 12:01:39;;;;;;;3.13;2.83;;;;;;;;;;5047004;28;20186;-81
2023/04/10 12:04:12;;;;;;;3.33;3.03;;;;;;;;;;5049448;28;20170;-81
2023/04/10 12:06:43;;;;;;;3.40;3.10;;;;;;;;;;5051085;28;20279;-81
2023/04/10 12:09:13;;;;;;;3.67;3.37;;;;;;;;;;5050515;28;20261;-81
2023/04/10 12:11:48;;;;;;;3.40;3.20;;;;;;;;;;5049142;28;20194;-81
2023/04/10 12:14:14;;;;;;;3.50;3.20;;;;;;;;;;5050909;28;20231;-82
2023/04/10 12:16:40;;;;;;;3.70;3.40;;;;;;;;;;5035026;28;20285;-82
2023/04/10 12:19:07;;;;;;;3.93;3.27;;;;;;;;;;5053888;28;20244;-81
2023/04/10 12:21:35;;;;;;;3.53;3.23;;;;;;;;;;5052468;28;20184;-81
2023/04/10 12:24:01;;;;;;;3.10;2.90;;;;;;;;;;5052626;28;20233;-81
2023/04/10 12:26:28;;;;;;;3.60;3.30;;;;;;;;;;5053420;28;20556;-81
2023/04/10 12:28:55;;;;;;;3.40;3.10;;;;;;;;;;5052512;28;20175;-81
2023/04/10 12:31:35;;;;;;;3.40;3.10;;;;;;;;;;5031610;28;20687;-81
2023/04/10 12:34:02;;;;;;;3.50;3.20;;;;;;;;;;5049973;28;20189;-82
2023/04/10 12:36:29;;;;;;;3.87;3.33;;;;;;;;;;5050886;28;20190;-81
2023/04/10 12:38:56;;;;;;;3.07;2.87;;;;;;;;;;5050510;28;20532;-82
2023/04/10 12:41:23;;;;;;;2.77;2.57;;;;;;;;;;5051218;28;20186;-81
2023/04/10 12:43:50;;;;;;;2.97;2.77;;;;;;;;;;5048626;28;20211;-82
2023/04/10 12:46:24;;;;;;;2.90;2.70;;;;;;;;;;5047867;28;20267;-81
2023/04/10 12:48:50;;;;;;;3.20;2.60;;;;;;;;;;5050581;28;20171;-81
2023/04/10 12:51:16;;;;;;;5.00;3.00;;;;;;;;;;5051745;28;20178;-81
2023/04/10 12:53:43;;;;;;;3.70;2.90;;;;;;;;;;5050931;28;20271;-81
2023/04/10 12:56:11;;;;;;;3.20;2.90;;;;;;;;;;5051404;28;20197;-81
2023/04/10 12:58:37;;;;;;;3.30;3.00;;;;;;;;;;5050077;28;20193;-81
2023/04/10 13:01:05;;;;;;;3.50;3.20;;;;;;;;;;5032571;28;20221;-81
2023/04/10 13:03:33;;;;;;;3.53;3.00;;;;;;;;;;5047917;28;20205;-82
2023/04/10 13:05:59;;;;;;;2.83;2.63;;;;;;;;;;5049010;28;20248;-82
2023/04/10 13:08:25;;;;;;;2.80;2.60;;;;;;;;;;5050461;28;20227;-82
2023/04/10 13:10:51;;;;;;;2.90;2.70;;;;;;;;;;5050619;28;20210;-82
2023/04/10 13:13:18;;;;;;;2.90;2.70;;;;;;;;;;5049745;28;20614;-81
2023/04/10 13:15:44;;;;;;;2.90;2.70;;;;;;;;;;5050097;28;20757;-82
2023/04/10 13:18:10;;;;;;;5.60;2.60;;;;;;;;;;5050319;28;20177;-82
2023/04/10 13:20:40;;;;;;;2.80;2.60;;;;;;;;;;5049084;28;20203;-83
2023/04/10 13:23:07;;;;;;;2.93;2.73;;;;;;;;;;5048672;28;20215;-82
2023/04/10 13:25:35;;;;;;;2.70;2.50;;;;;;;;;;5050090;28;20209;-81
2023/04/10 13:28:02;;;;;;;2.53;2.30;;;;;;;;;;5032012;28;20185;-81
2023/04/10 13:30:28;;;;;;;2.50;2.30;;;;;;;;;;5049805;28;20182;-81
2023/04/10 13:32:55;;;;;;;2.53;2.33;;;;;;;;;;5048196;28;20190;-82
2023/04/10 13:35:21;;;;;;;2.70;2.50;;;;;;;;;;5048881;28;20190;-81
2023/04/10 13:37:47;;;;;;;2.20;2.00;;;;;;;;;;5048494;28;20573;-82
2023/04/10 13:40:13;;;;;;;2.40;2.20;;;;;;;;;;5032132;28;20193;-81
2023/04/10 13:42:39;;;;;;;2.53;2.33;;;;;;;;;;5046542;28;20213;-81
2023/04/10 13:45:06;;;;;;;2.60;2.40;;;;;;;;;;5048557;28;20236;-82
2023/04/10 13:47:32;;;;;;;2.37;2.17;;;;;;;;;;5050323;28;20205;-81
2023/04/10 13:49:58;;;;;;;4.70;2.50;;;;;;;;;;5044624;28;20684;-81
2023/04/10 13:52:24;;;;;;;2.70;2.50;;;;;;;;;;5048191;28;20300;-81
2023/04/10 13:54:51;;;;;;;2.87;2.60;;;;;;;;;;5050295;28;20182;-81
2023/04/10 13:57:17;;;;;;;2.70;2.50;;;;;;;;;;5048385;28;20288;-81
2023/04/10 13:59:43;;;;;;;2.60;2.40;;;;;;;;;;5048403;28;20199;-82
2023/04/10 14:02:09;;;;;;;2.50;2.30;;;;;;;;;;5047809;28;20213;-82
2023/04/10 14:04:35;;;;;;;2.70;2.50;;;;;;;;;;5039923;28;20181;-82
2023/04/10 14:07:01;;;;;;;2.50;2.30;;;;;;;;;;5048004;28;20198;-84
2023/04/10 14:09:28;;;;;;;2.90;2.00;;;;;;;;;;5052489;28;20182;-83
2023/04/10 14:11:54;;;;;;;2.50;2.30;;;;;;;;;;5018961;28;20280;-86
2023/04/10 14:14:24;;;;;;;2.83;2.53;;;;;;;;;;5040311;28;20186;-81
2023/04/10 14:16:50;;;;;;;2.20;2.00;;;;;;;;;;5042374;28;21607;-84
2023/04/10 14:19:16;;;;;;;2.70;2.50;;;;;;;;;;5044986;28;20217;-84
2023/04/10 14:21:43;;;;;;;3.73;2.20;;;;;;;;;;5046026;28;20678;-85
2023/04/10 14:24:09;;;;;;;2.30;2.10;;;;;;;;;;5041148;28;20178;-84
2023/04/10 14:26:36;;;;;;;2.43;2.23;;;;;;;;;;5045852;28;20498;-83
2023/04/10 14:29:02;;;;;;;2.40;2.20;;;;;;;;;;5044352;28;20612;-83
2023/04/10 14:31:28;;;;;;;1.90;1.80;;;;;;;;;;5046077;28;20181;-83
2023/04/10 14:33:54;;;;;;;2.60;2.40;;;;;;;;;;5029108;28;20571;-83
2023/04/10 14:36:21;;;;;;;2.40;2.20;;;;;;;;;;5046455;28;20220;-83
2023/04/10 14:38:47;;;;;;;2.30;2.10;;;;;;;;;;5048342;28;20601;-83
2023/04/10 14:41:14;;;;;;;2.50;2.30;;;;;;;;;;5047532;28;20644;-84
2023/04/10 14:43:40;;;;;;;2.83;2.07;;;;;;;;;;5028662;28;20688;-84
2023/04/10 14:46:06;;;;;;;3.57;1.90;;;;;;;;;;5047066;28;20209;-84
2023/04/10 14:48:33;;;;;;;2.10;2.00;;;;;;;;;;5021299;28;20170;-84
2023/04/10 14:51:00;;;;;;;2.20;2.00;;;;;;;;;;5025494;28;20473;-84
2023/04/10 14:53:26;;;;;;;3.97;2.20;;;;;;;;;;5046290;28;20213;-84
2023/04/10 14:55:52;;;;;;;2.23;2.10;;;;;;;;;;5031690;28;20185;-82
2023/04/10 14:58:18;;;;;;;2.20;2.00;;;;;;;;;;5048844;28;20193;-83